Flight Track Log - Related Links

Times and Time Zones

All times are in EDT time to prevent confusion due to time zone crossing. See the EJA396 flight status page for this flight to view local times or setup timezone preferences in your user account.

Time Position Orientation Groundspeed Altitude Reporting Facility
EDT Latitude Longitude Course Direction KTS MPH feet Rate Location/Type
Wed 10:51:48 AM 37.7500 -122.2833 65° Northeast 229 264 2,900  Level Northern Cal TRACON
Wed 10:52:48 AM 37.8000 -122.3333 322° Northwest 251 289 6,500 2,948 Climbing Northern Cal TRACON
Wed 10:54:41 AM 37.9175 -122.2658 24° Northeast 299 344 11,400 2,483 Climbing Oakland Center
Wed 10:55:42 AM 37.9822 -122.1783 47° Northeast 340 391 13,700 2,361 Climbing Oakland Center
Wed 10:56:43 AM 38.0697 -122.0606 47° Northeast 382 440 16,200 2,311 Climbing Oakland Center
Wed 10:57:00 AM 37.9977 -121.4440 65° Northeast  Level Estimated
Wed 10:57:44 AM 38.1469 -121.9558 47° Northeast 405 466 18,400  Level Oakland Center
Wed 10:58:46 AM 38.2253 -121.8494 47° Northeast 412 474 20,700 2,146 Climbing Oakland Center
Wed 10:59:47 AM 38.3031 -121.7431 47° Northeast 412 474 22,800 2,557 Climbing Oakland Center
Wed 11:00:48 AM 38.3811 -121.6356 47° Northeast 412 474 25,900 2,459 Climbing Oakland Center
Wed 11:01:49 AM 38.4550 -121.5308 48° Northeast 407 468 27,800 1,805 Climbing Oakland Center
Wed 11:02:51 AM 38.5267 -121.4081 53° Northeast 418 481 29,600 1,854 Climbing Oakland Center
Wed 11:03:52 AM 38.5953 -121.2883 54° Northeast 421 484 31,600 1,672 Climbing Oakland Center
Wed 11:04:53 AM 38.6664 -121.1694 53° Northeast 421 484 33,000 1,279 Climbing Oakland Center
Wed 11:05:54 AM 38.7442 -121.0356 53° Northeast 434 499 34,200 1,122 Climbing Oakland Center
Wed 11:06:56 AM 38.8169 -120.9086 54° Northeast 439 505 35,300 780 Climbing Oakland Center
Wed 11:07:57 AM 38.8944 -120.7747 53° Northeast 462 532 35,800 492 Climbing Oakland Center
Wed 11:08:58 AM 38.9767 -120.6364 53° Northeast 483 556 36,300 541 Climbing Oakland Center
Wed 11:09:59 AM 39.0747 -120.4650 54° Northeast 493 567 36,900 341 Climbing Oakland Center
Wed 11:11:01 AM 39.1572 -120.3200 54° Northeast 500 575 37,000 49 Climbing Oakland Center
Wed 11:12:02 AM 39.2411 -120.1728 54° Northeast 506 582 37,000  Level Oakland Center
Wed 11:13:03 AM 39.3306 -120.0164 53° Northeast 513 590 37,000  Level Oakland Center
Wed 11:14:04 AM 39.4150 -119.8661 54° Northeast 514 592 37,000  Level Oakland Center
Wed 11:15:06 AM 39.4997 -119.7147 54° Northeast 517 595 37,000  Level Oakland Center
Wed 11:16:07 AM 39.5844 -119.5622 54° Northeast 520 598 37,000  Level Oakland Center
Wed 11:17:08 AM 39.6692 -119.4086 54° Northeast 521 600 37,000  Level Oakland Center
Wed 11:18:10 AM 39.7556 -119.2539 54° Northeast 523 602 37,000  Level Oakland Center
Wed 11:19:11 AM 39.8406 -119.0986 54° Northeast 523 602 37,000  Level Oakland Center
Wed 11:20:12 AM 39.9272 -118.9422 54° Northeast 526 605 37,000  Level Oakland Center
Wed 11:21:13 AM 40.0117 -118.7861 55° Northeast 525 604 37,000  Level Oakland Center
Wed 11:22:15 AM 40.0969 -118.6297 54° Northeast 525 604 37,000  Level Oakland Center
Wed 11:23:16 AM 40.1644 -118.4619 62° Northeast 518 596 37,000  Level Oakland Center
Wed 11:24:17 AM 40.2289 -118.2892 64° Northeast 523 602 37,000  Level Oakland Center
Wed 11:25:19 AM 40.2931 -118.1183 64° Northeast 523 602 37,000  Level Oakland Center
Wed 11:26:20 AM 40.3631 -117.9297 64° Northeast 524 603 37,000  Level Oakland Center
Wed 11:27:21 AM 40.4247 -117.7642 64° Northeast 525 604 37,000  Level Oakland Center
Wed 11:28:22 AM 40.4964 -117.5708 64° Northeast 524 603 37,000  Level Oakland Center
Wed 11:29:24 AM 40.5567 -117.4050 64° Northeast 524 603 37,000  Level Oakland Center
Wed 11:30:25 AM 40.6175 -117.2389 64° Northeast 522 601 37,000  Level Oakland Center
Wed 11:31:26 AM 40.6886 -117.0431 64° Northeast 525 604 37,000  Level Oakland Center
Wed 11:32:28 AM 40.7489 -116.8742 65° Northeast 524 603 37,000  Level Oakland Center
Wed 11:32:43 AM 40.7686 -116.8172 65° Northeast 524 603 37,000  Level Salt Lake Center
Wed 11:33:45 AM 40.8281 -116.6489 65° Northeast 524 603 37,000  Level Salt Lake Center
Wed 11:34:47 AM 40.8875 -116.4803 65° Northeast 527 606 37,000  Level Salt Lake Center
Wed 11:35:49 AM 40.9567 -116.2822 65° Northeast 530 610 37,000  Level Salt Lake Center
Wed 11:36:51 AM 41.0167 -116.1117 65° Northeast 532 612 37,000  Level Salt Lake Center
Wed 11:37:53 AM 41.0867 -115.9153 65° Northeast 530 610 37,000  Level Salt Lake Center
Wed 11:38:55 AM 41.1433 -115.7433 66° East 530 610 37,000  Level Salt Lake Center
Wed 11:39:57 AM 41.2122 -115.5436 65° Northeast 532 612 37,000  Level Salt Lake Center
Wed 11:40:59 AM 41.2703 -115.3722 66° East 531 611 37,000  Level Salt Lake Center
Wed 11:42:01 AM 41.3378 -115.1711 66° East 534 615 37,000  Level Salt Lake Center
Wed 11:43:03 AM 41.3964 -114.9986 66° East 534 615 37,000  Level Salt Lake Center
Wed 11:44:05 AM 41.4639 -114.7933 66° East 538 619 37,000  Level Salt Lake Center
Wed 11:45:07 AM 41.5239 -114.6117 66° East 537 618 37,000  Level Salt Lake Center
Wed 11:46:09 AM 41.5847 -114.4294 66° East 538 619 37,000  Level Salt Lake Center
Wed 11:47:11 AM 41.6439 -114.2464 67° East 538 619 37,000  Level Salt Lake Center
Wed 11:48:13 AM 41.7025 -114.0628 67° East 537 618 37,000  Level Salt Lake Center
Wed 11:49:15 AM 41.7528 -113.8758 70° East 536 617 37,000  Level Salt Lake Center
Wed 11:50:17 AM 41.8044 -113.6467 73° East 537 618 37,000  Level Salt Lake Center
Wed 11:51:19 AM 41.8489 -113.4581 72° East 534 615 37,000  Level Salt Lake Center
Wed 11:52:21 AM 41.8933 -113.2689 72° East 532 612 37,000  Level Salt Lake Center
Wed 11:53:23 AM 41.9369 -113.0778 73° East 532 612 37,000  Level Salt Lake Center
Wed 11:54:25 AM 41.9822 -112.8864 72° East 536 617 37,000  Level Salt Lake Center
Wed 11:55:27 AM 42.0283 -112.6956 72° East 537 618 37,000  Level Salt Lake Center
Wed 11:56:29 AM 42.0742 -112.5047 72° East 537 618 37,000  Level Salt Lake Center
Wed 11:57:31 AM 42.1364 -112.2783 70° East 537 618 37,000  Level Salt Lake Center
Wed 11:58:33 AM 42.1942 -112.0933 67° East 535 616 37,000  Level Salt Lake Center
Wed 11:59:37 AM 42.2519 -111.9067 67° East 537 618 37,000  Level Salt Lake Center
Wed 12:00:39 PM 42.3092 -111.7203 67° East 537 618 37,000  Level Salt Lake Center
Wed 12:01:41 PM 42.3658 -111.5336 68° East 538 619 37,000  Level Salt Lake Center
Wed 12:02:43 PM 42.4217 -111.3464 68° East 536 617 37,000  Level Salt Lake Center
Wed 12:03:45 PM 42.4894 -111.1231 68° East 534 615 37,000  Level Salt Lake Center
Wed 12:04:47 PM 42.5461 -110.9331 68° East 536 617 37,000  Level Salt Lake Center
Wed 12:05:49 PM 42.5994 -110.7533 68° East 536 617 37,000  Level Salt Lake Center
Wed 12:06:51 PM 42.6611 -110.5417 68° East 538 619 37,000  Level Salt Lake Center
Wed 12:07:53 PM 42.7147 -110.3619 68° East 538 619 37,000  Level Salt Lake Center
Wed 12:08:55 PM 42.7756 -110.1533 68° East 534 615 37,000  Level Salt Lake Center
Wed 12:09:57 PM 42.8275 -109.9697 69° East 539 620 37,000  Level Salt Lake Center
Wed 12:10:59 PM 42.8792 -109.7878 69° East 536 617 37,000  Level Salt Lake Center
Wed 12:12:01 PM 42.9389 -109.5767 69° East 534 615 37,000  Level Salt Lake Center
Wed 12:13:03 PM 42.9950 -109.3722 69° East 534 615 37,000  Level Salt Lake Center
Wed 12:14:05 PM 43.0458 -109.1917 69° East 532 612 37,000  Level Salt Lake Center
Wed 12:15:07 PM 43.1039 -108.9811 69° East 532 612 37,000  Level Salt Lake Center
Wed 12:16:09 PM 43.1533 -108.8008 69° East 530 610 37,000  Level Salt Lake Center
Wed 12:17:10 PM 43.2092 -108.5900 70° East 528 608 37,000  Level Salt Lake Center
Wed 12:18:12 PM 43.2583 -108.4072 70° East 532 612 37,000  Level Salt Lake Center
Wed 12:19:14 PM 43.3072 -108.2261 70° East 531 611 37,000  Level Salt Lake Center
Wed 12:20:16 PM 43.3639 -108.0119 70° East 535 616 37,000  Level Salt Lake Center
Wed 12:21:18 PM 43.4114 -107.8308 70° East 530 610 37,000  Level Salt Lake Center
Wed 12:22:20 PM 43.4667 -107.6158 70° East 534 615 37,000  Level Salt Lake Center
Wed 12:23:22 PM 43.5147 -107.4303 70° East 538 619 37,000  Level Salt Lake Center
Wed 12:24:09 PM 43.5550 -107.2772 70° East 530 610 37,000  Level Denver Center
Wed 12:25:11 PM 43.6092 -107.0639 71° East 529 609 37,000  Level Denver Center
Wed 12:25:26 PM 43.6158 -107.0322 74° East 537 618 37,000  Level Salt Lake Center
Wed 12:26:13 PM 43.6553 -106.8797 70° East 531 611 37,000  Level Denver Center
Wed 12:26:28 PM 43.6661 -106.8353 71° East 532 612 37,000  Level Salt Lake Center
Wed 12:27:30 PM 43.7172 -106.6250 71° East 520 598 37,000  Level Salt Lake Center
Wed 12:28:17 PM 43.7542 -106.4831 70° East 528 608 37,000 385 Level Denver Center
Wed 12:29:19 PM 43.8064 -106.2703 71° East 525 604 37,700 701 Climbing Denver Center
Wed 12:29:34 PM 43.8192 -106.2236 69° East 532 612 37,900 568 Climbing Salt Lake Center
Wed 12:30:33 PM 43.8511 -106.0889 72° East 521 600 38,400 541 Climbing Denver Center
Wed 12:31:36 PM 43.9075 -105.8547 71° East 511 588 39,000 288 Climbing Denver Center
Wed 12:32:38 PM 43.9481 -105.6811 72° East 503 579 39,000  Level Denver Center
Wed 12:33:40 PM 43.9944 -105.4819 72° East 495 570 39,000  Level Denver Center
Wed 12:34:42 PM 44.0353 -105.3117 71° East 490 564 39,000  Level Denver Center
Wed 12:35:44 PM 44.0806 -105.1106 73° East 490 564 39,000  Level Denver Center
Wed 12:36:46 PM 44.1197 -104.9411 72° East 486 559 39,000  Level Denver Center
Wed 12:37:48 PM 44.1658 -104.7400 72° East 487 560 39,000  Level Denver Center
Wed 12:38:50 PM 44.2042 -104.5700 72° East 485 558 39,000  Level Denver Center
Wed 12:39:52 PM 44.2483 -104.3703 73° East 483 556 39,000  Level Denver Center
Wed 12:40:54 PM 44.2858 -104.1981 73° East 484 557 39,000  Level Denver Center
Wed 12:41:56 PM 44.3319 -103.9975 72° East 486 559 39,000  Level Denver Center
Wed 12:42:58 PM 44.3650 -103.8414 73° East 487 560 39,000  Level Denver Center
Wed 12:44:00 PM 44.4122 -103.6244 73° East 486 559 39,000  Level Denver Center
Wed 12:45:02 PM 44.4511 -103.4458 73° East 483 556 39,000  Level Denver Center
Wed 12:46:16 PM 44.4894 -103.2675 73° East 479 551 39,000  Level Denver Center
Wed 12:47:19 PM 44.5322 -103.0517 74° East 479 551 39,000  Level Denver Center
Wed 12:48:21 PM 44.5692 -102.8742 74° East 478 550 39,000  Level Denver Center
Wed 12:49:23 PM 44.6081 -102.6969 73° East 476 548 39,000  Level Denver Center
Wed 12:50:23 PM 44.6511 -102.5236 71° East 472 543 39,000  Level Minneapolis Center
Wed 12:51:27 PM 44.6878 -102.3111 76° East 470 541 39,000  Level Denver Center
Wed 12:52:29 PM 44.7233 -102.1347 74° East 469 540 39,000  Level Denver Center
Wed 12:53:29 PM 44.7650 -101.9619 71° East 466 536 39,000 197 Level Minneapolis Center
Wed 12:54:31 PM 44.7997 -101.7853 74° East 468 539 39,400 484 Climbing Minneapolis Center
Wed 12:55:33 PM 44.8347 -101.6072 74° East 470 541 40,000 435 Climbing Minneapolis Center
Wed 12:56:35 PM 44.8692 -101.4300 75° East 471 542 40,300 339 Climbing Minneapolis Center
Wed 12:57:37 PM 44.9100 -101.2156 75° East 471 542 40,700 339 Climbing Minneapolis Center
Wed 12:58:39 PM 44.9436 -101.0356 75° East 473 544 41,000 145 Climbing Minneapolis Center
Wed 12:59:41 PM 44.9814 -100.8556 73° East 476 548 41,000  Level Minneapolis Center
Wed 01:00:43 PM 45.0139 -100.6753 76° East 475 547 41,000  Level Minneapolis Center
Wed 01:01:45 PM 45.0475 -100.4972 75° East 471 542 41,000  Level Minneapolis Center
Wed 01:02:47 PM 45.0797 -100.3189 76° East 468 539 41,000  Level Minneapolis Center
Wed 01:03:49 PM 45.1125 -100.1386 75° East 467 537 41,000  Level Minneapolis Center
Wed 01:04:51 PM 45.1497 -99.9519 74° East 478 550 41,000  Level Minneapolis Center
Wed 01:05:54 PM 45.1806 -99.7656 77° East 478 550 41,000  Level Minneapolis Center
Wed 01:06:56 PM 45.2172 -99.5500 76° East 468 539 41,000  Level Minneapolis Center
Wed 01:07:58 PM 45.2475 -99.3711 76° East 467 537 41,000  Level Minneapolis Center
Wed 01:09:00 PM 45.2797 -99.1897 76° East 471 542 41,000  Level Minneapolis Center
Wed 01:10:02 PM 45.3111 -99.0106 76° East 469 540 41,000  Level Minneapolis Center
Wed 01:11:04 PM 45.3408 -98.8292 77° East 470 541 41,000  Level Minneapolis Center
Wed 01:12:06 PM 45.3711 -98.6489 76° East 471 542 41,000  Level Minneapolis Center
Wed 01:13:08 PM 45.4075 -98.4297 77° East 473 544 41,000  Level Minneapolis Center
Wed 01:14:10 PM 45.4142 -98.2447 87° East 469 540 41,000  Level Minneapolis Center
Wed 01:15:12 PM 45.4075 -98.0575 93° East 472 543 41,000  Level Minneapolis Center
Wed 01:16:14 PM 45.4006 -97.8806 93° East 470 541 41,000  Level Minneapolis Center
Wed 01:17:16 PM 45.3933 -97.6931 93° East 473 544 41,000  Level Minneapolis Center
Wed 01:18:18 PM 45.3844 -97.4692 93° East 473 544 41,000  Level Minneapolis Center
Wed 01:19:21 PM 45.3772 -97.2814 93° East 475 547 41,000  Level Minneapolis Center
Wed 01:20:23 PM 45.3700 -97.0942 93° East 474 545 41,000  Level Minneapolis Center
Wed 01:21:25 PM 45.3597 -96.9078 94° East 474 545 41,000  Level Minneapolis Center
Wed 01:22:27 PM 45.3517 -96.7214 93° East 473 544 41,000  Level Minneapolis Center
Wed 01:23:29 PM 45.3433 -96.5358 94° East 471 542 41,000  Level Minneapolis Center
Wed 01:24:31 PM 45.3328 -96.3147 94° East 468 539 41,000  Level Minneapolis Center
Wed 01:25:33 PM 45.3236 -96.1311 94° East 467 537 41,000  Level Minneapolis Center
Wed 01:26:35 PM 45.3144 -95.9469 94° East 468 539 41,000  Level Minneapolis Center
Wed 01:27:37 PM 45.3033 -95.7614 95° East 469 540 41,000  Level Minneapolis Center
Wed 01:28:39 PM 45.2931 -95.5769 94° East 469 540 41,000  Level Minneapolis Center
Wed 01:29:41 PM 45.2819 -95.3942 95° East 466 536 41,000  Level Minneapolis Center
Wed 01:30:43 PM 45.2722 -95.2111 94° East 465 535 41,000  Level Minneapolis Center
Wed 01:31:45 PM 45.2581 -94.9911 95° East 466 536 41,000  Level Minneapolis Center
Wed 01:32:48 PM 45.2469 -94.8089 95° East 465 535 41,000  Level Minneapolis Center
Wed 01:33:50 PM 45.2364 -94.6411 95° East 466 536 41,000  Level Minneapolis Center
Wed 01:34:52 PM 45.2208 -94.4236 96° East 464 534 41,000  Level Minneapolis Center
Wed 01:35:54 PM 45.2089 -94.2417 95° East 465 535 41,000  Level Minneapolis Center
Wed 01:36:56 PM 45.1967 -94.0603 95° East 463 533 41,000  Level Minneapolis Center
Wed 01:37:58 PM 45.1833 -93.8778 96° East 466 536 41,000  Level Minneapolis Center
Wed 01:39:00 PM 45.1700 -93.6967 96° East 464 534 41,000  Level Minneapolis Center
Wed 01:40:02 PM 45.1567 -93.5139 96° East 465 535 41,000  Level Minneapolis Center
Wed 01:41:04 PM 45.1428 -93.3308 96° East 466 536 41,000  Level Minneapolis Center
Wed 01:42:06 PM 45.1239 -93.1097 97° East 468 539 41,000  Level Minneapolis Center
Wed 01:43:08 PM 45.1069 -92.9264 97° East 469 540 41,000  Level Minneapolis Center
Wed 01:44:10 PM 45.0908 -92.7439 97° East 466 536 41,000  Level Minneapolis Center
Wed 01:45:13 PM 45.0733 -92.5628 98° East 466 536 41,000  Level Minneapolis Center
Wed 01:46:15 PM 45.0575 -92.3814 97° East 466 536 41,000  Level Minneapolis Center
Wed 01:47:17 PM 45.0389 -92.2008 98° East 465 535 41,000  Level Minneapolis Center
Wed 01:48:19 PM 45.0194 -92.0189 99° East 467 537 41,000  Level Minneapolis Center
Wed 01:49:21 PM 44.9964 -91.8019 98° East 467 537 41,000  Level Minneapolis Center
Wed 01:50:23 PM 44.9769 -91.6217 99° East 466 536 41,000  Level Minneapolis Center
Wed 01:51:25 PM 44.9575 -91.4428 99° East 465 535 41,000  Level Minneapolis Center
Wed 01:52:27 PM 44.9375 -91.2636 99° East 464 534 41,000  Level Minneapolis Center
Wed 01:53:29 PM 44.9186 -91.0844 98° East 463 533 41,000  Level Minneapolis Center
Wed 01:54:31 PM 44.8958 -90.8869 99° East 464 534 41,000  Level Minneapolis Center
Wed 01:55:33 PM 44.8764 -90.7100 99° East 461 531 41,000  Level Minneapolis Center
Wed 01:56:36 PM 44.8544 -90.5317 100° East 463 533 41,000  Level Minneapolis Center
Wed 01:57:38 PM 44.8325 -90.3375 99° East 462 532 41,000  Level Minneapolis Center
Wed 01:58:40 PM 44.8108 -90.1586 100° East 464 534 41,000  Level Minneapolis Center
Wed 01:59:42 PM 44.7856 -89.9481 100° East 466 536 41,000  Level Minneapolis Center
Wed 02:00:45 PM 44.7628 -89.7692 100° East 466 536 41,000  Level Minneapolis Center
Wed 02:01:47 PM 44.7403 -89.5900 100° East 465 535 41,000  Level Minneapolis Center
Wed 02:02:49 PM 44.7175 -89.4097 100° East 467 537 41,000  Level Minneapolis Center
Wed 02:03:51 PM 44.6942 -89.2294 100° East 468 539 41,000  Level Minneapolis Center
Wed 02:04:53 PM 44.6661 -89.0206 101° East 466 536 41,000  Level Minneapolis Center
Wed 02:05:55 PM 44.6428 -88.8406 100° East 468 539 41,000  Level Minneapolis Center
Wed 02:06:57 PM 44.6186 -88.6589 101° East 471 542 41,000  Level Minneapolis Center
Wed 02:07:59 PM 44.5944 -88.4775 101° East 472 543 41,000  Level Minneapolis Center
Wed 02:09:01 PM 44.5694 -88.2944 101° East 475 547 41,000  Level Minneapolis Center
Wed 02:10:03 PM 44.5592 -88.1111 94° East 476 548 41,000  Level Minneapolis Center
Wed 02:11:05 PM 44.5706 -87.9164 85° East 472 543 41,000  Level Minneapolis Center
Wed 02:12:08 PM 44.5786 -87.7325 86° East 474 545 41,000  Level Minneapolis Center
Wed 02:13:10 PM 44.5869 -87.5486 86° East 473 544 41,000  Level Minneapolis Center
Wed 02:14:12 PM 44.5978 -87.3289 86° East 472 543 41,000  Level Minneapolis Center
Wed 02:15:14 PM 44.6061 -87.1458 86° East 471 542 41,000  Level Minneapolis Center
Wed 02:16:16 PM 44.6142 -86.9636 86° East 471 542 41,000  Level Minneapolis Center
Wed 02:17:18 PM 44.6222 -86.7783 86° East 476 548 41,000  Level Minneapolis Center
Wed 02:18:20 PM 44.6300 -86.5972 86° East 470 541 41,000  Level Minneapolis Center
Wed 02:19:22 PM 44.6389 -86.3781 87° East 472 543 41,000  Level Minneapolis Center
Wed 02:20:24 PM 44.6447 -86.1967 87° East 472 543 41,000  Level Minneapolis Center
Wed 02:21:26 PM 44.6525 -86.0219 86° East 476 548 41,000  Level Minneapolis Center
Wed 02:22:28 PM 44.6583 -85.8361 87° East 477 549 41,000  Level Minneapolis Center
Wed 02:23:30 PM 44.6653 -85.6139 87° East 475 547 41,000  Level Minneapolis Center
Wed 02:24:32 PM 44.6572 -85.4283 93° East 478 550 41,000  Level Minneapolis Center
Wed 02:25:34 PM 44.6392 -85.2431 98° East 482 555 41,000  Level Minneapolis Center
Wed 02:26:37 PM 44.6219 -85.0578 97° East 481 554 41,000  Level Minneapolis Center
Wed 02:27:39 PM 44.6044 -84.8711 97° East 483 556 41,000  Level Minneapolis Center
Wed 02:28:41 PM 44.5850 -84.6850 98° East 484 557 41,000  Level Minneapolis Center
Wed 02:29:43 PM 44.5625 -84.4603 98° East 486 559 41,000  Level Minneapolis Center
Wed 02:30:45 PM 44.5453 -84.2733 97° East 486 559 41,000  Level Minneapolis Center
Wed 02:31:47 PM 44.5253 -84.0864 98° East 486 559 41,000  Level Minneapolis Center
Wed 02:32:49 PM 44.5053 -83.8978 98° East 489 563 41,000  Level Minneapolis Center
Wed 02:33:51 PM 44.4867 -83.7097 98° East 489 563 41,000  Level Minneapolis Center
Wed 02:34:53 PM 44.4617 -83.4819 99° East 493 567 41,000  Level Minneapolis Center
Wed 02:35:55 PM 44.4444 -83.2911 97° East 495 570 41,000  Level Minneapolis Center
Wed 02:36:57 PM 44.4411 -83.0989 91° East 496 571 41,000  Level Minneapolis Center
Wed 02:37:59 PM 44.4344 -82.9089 93° East 493 567 41,000  Level Minneapolis Center
Wed 02:39:01 PM 44.4297 -82.7178 92° East 493 567 41,000  Level Minneapolis Center
Wed 02:40:03 PM 44.4219 -82.5256 93° East 494 568 41,000  Level Minneapolis Center
Wed 02:41:06 PM 44.4133 -82.2964 93° East 494 568 41,000  Level Minneapolis Center
Wed 02:41:25 PM 44.3833 -82.2167 118° Southeast 500 575 41,000  Level Toronto Center
Wed 02:42:25 PM 44.3833 -82.0333 90° East 500 575 41,000  Level Toronto Center
Wed 02:43:25 PM 44.3833 -81.8500 90° East 490 564 41,000  Level Toronto Center
Wed 02:44:25 PM 44.3667 -81.6333 96° East 500 575 41,000  Level Toronto Center
Wed 02:45:25 PM 44.3667 -81.4500 90° East 500 575 41,000  Level Toronto Center
Wed 02:46:25 PM 44.3500 -81.2667 97° East 490 564 41,000  Level Toronto Center
Wed 02:47:25 PM 44.3333 -81.0833 97° East 490 564 41,000  Level Toronto Center
Wed 02:48:25 PM 44.3167 -80.8667 96° East 490 564 41,000  Level Toronto Center
Wed 02:49:25 PM 44.3333 -80.7000 82° East 490 564 41,000  Level Toronto Center
Wed 02:50:25 PM 44.3167 -80.5000 97° East 490 564 41,000  Level Toronto Center
Wed 02:51:25 PM 44.3000 -80.3000 97° East 490 564 41,000  Level Toronto Center
Wed 02:52:25 PM 44.2833 -80.1167 97° East 490 564 41,000  Level Toronto Center
Wed 02:53:25 PM 44.2833 -79.9333 90° East 490 564 41,000  Level Toronto Center
Wed 02:54:25 PM 44.2667 -79.7500 97° East 490 564 41,000  Level Toronto Center
Wed 02:55:25 PM 44.2500 -79.5667 97° East 490 564 41,000  Level Toronto Center
Wed 02:56:25 PM 44.2500 -79.3500 90° East 490 564 41,000  Level Toronto Center
Wed 02:57:25 PM 44.2333 -79.1833 98° East 490 564 41,000  Level Toronto Center
Wed 02:58:25 PM 44.2167 -78.9833 97° East 490 564 41,000  Level Toronto Center
Wed 02:59:25 PM 44.2000 -78.8000 97° East 490 564 41,000  Level Toronto Center
Wed 03:00:25 PM 44.1667 -78.6333 106° East 490 564 41,000  Level Toronto Center
Wed 03:01:25 PM 44.1333 -78.4167 102° East 490 564 41,000 -200 Level Toronto Center
Wed 03:02:25 PM 44.1000 -78.2333 104° East 490 564 40,600 -950 Descending Toronto Center
Wed 03:03:25 PM 44.0833 -78.0500 97° East 500 575 39,100 -1,400 Descending Toronto Center
Wed 03:04:25 PM 44.0500 -77.8667 104° East 500 575 37,800 -1,050 Descending Toronto Center
Wed 03:05:25 PM 44.0333 -77.6667 97° East 510 587 37,000 -400 Descending Toronto Center
Wed 03:06:25 PM 44.0000 -77.4833 104° East 510 587 37,000  Level Toronto Center
Wed 03:07:25 PM 43.9667 -77.2667 102° East 510 587 37,000 -150 Level Toronto Center
Wed 03:08:25 PM 43.9333 -77.0833 104° East 510 587 36,700 -750 Descending Toronto Center
Wed 03:09:25 PM 43.9167 -76.9000 97° East 510 587 35,500 -1,200 Descending Toronto Center
Wed 03:10:25 PM 43.8833 -76.7000 103° East 530 610 34,300 -1,200 Descending Toronto Center
Wed 03:11:25 PM 43.8333 -76.4833 108° East 530 610 33,100 -1,164 Descending Toronto Center
Wed 03:12:39 PM 43.8233 -76.3025 94° East 531 611 31,700 -1,164 Descending Boston Center
Wed 03:13:39 PM 43.7886 -76.0872 103° East 531 611 30,500 -1,200 Descending Boston Center
Wed 03:14:39 PM 43.7531 -75.8925 104° East 525 604 29,300 -1,200 Descending Boston Center
Wed 03:15:39 PM 43.7214 -75.6953 102° East 525 604 28,100 -1,200 Descending Boston Center
Wed 03:16:39 PM 43.6869 -75.5008 104° East 520 598 26,900 -1,350 Descending Boston Center
Wed 03:17:39 PM 43.6564 -75.3156 103° East 509 586 25,400 -1,900 Descending Boston Center
Wed 03:18:39 PM 43.6211 -75.1333 105° East 497 572 23,100 -2,400 Descending Boston Center
Wed 03:19:39 PM 43.5917 -74.9600 103° East 486 559 20,600 -2,500 Descending Boston Center
Wed 03:20:39 PM 43.5600 -74.7953 105° East 470 541 18,100 -2,350 Descending Boston Center
Wed 03:21:39 PM 43.5339 -74.6367 103° East 438 504 15,900 -1,975 Descending Boston Center
Wed 03:21:58 PM 43.5261 -74.6078 110° East 421 484 15,500 -2,100 Descending Boston Center
Wed 03:22:39 PM 43.5053 -74.4869 103° East 416 479 13,800 -2,262 Descending Boston Center
Wed 03:22:59 PM 43.4958 -74.4436 107° East 410 472 13,200 -2,100 Descending Boston Center
Wed 03:23:39 PM 43.4786 -74.3458 104° East 395 455 11,700 -2,100 Descending Boston Center
Wed 03:23:59 PM 43.4689 -74.3025 107° East 365 420 11,100 -700 Descending Boston Center
Wed 03:24:39 PM 43.4536 -74.2106 103° East 379 436 11,000 -109 Descending Boston Center
Wed 03:24:54 PM 43.4481 -74.1789 104° East 361 415 11,000 -880 Level Boston Center
Wed 03:25:54 PM 43.4122 -74.0636 113° Southeast 318 366 9,900 -1,600 Descending Boston Center
Wed 03:26:39 PM 43.3819 -73.9797 116° Southeast 318 366 8,200 -2,164 Descending Boston Center
Wed 03:26:55 PM 43.3739 -73.9567 116° Southeast 303 349 7,700 -2,100 Descending Boston Center
Wed 03:27:39 PM 43.3497 -73.8933 118° Southeast 291 335 6,100 -2,164 Descending Boston Center
Wed 03:27:56 PM 43.3397 -73.8617 113° Southeast 273 314 5,500 -1,100 Descending Boston Center
Wed 03:28:39 PM 43.3136 -73.7983 120° Southeast 285 328 5,000 14,854 Descending Boston Center
Wed 03:29:39 PM 43.2792 -73.7036 117° Southeast 285 328 31,000 13,000 Climbing Boston Center
Wed 03:30:39 PM 43.2425 -73.6114 119° Southeast 285 328 31,000  Level Boston Center
Wed 03:31:39 PM 43.2081 -73.5169 117° Southeast 285 328 31,000  Level Boston Center
Wed 03:32:39 PM 43.1856 -73.4622 119° Southeast 285 328 31,000  Level Boston Center
Wed 03:33:39 PM 43.1856 -73.4622 200° South 285 328 31,000  Level Boston Center
Wed 03:35:39 PM 43.1856 -73.4622 200° South 285 328 31,000  Level Boston Center
Wed 03:37:00 PM 43.3333 -73.6000 324° Northwest  Level FlightAware Approximate
Wed 03:44:00 PM 43.3412 -73.6103 324° Northwest  Level Estimated
Wed 03:45:00 PM 43.3412 -73.6103 324° Northwest  Level Estimated

Login

Don't have an account? Register now (free) for customized features, flight alerts, and more!